createdAt,value
2023-03-05T00:01:35.438Z,101286.84
2023-03-05T00:04:04.656Z,101286.47
2023-03-05T00:06:32.968Z,101275.59
2023-03-05T00:09:02.868Z,101268.50
2023-03-05T00:11:35.126Z,101259.34
2023-03-05T00:14:04.446Z,101262.16
2023-03-05T00:16:33.861Z,101258.72
2023-03-05T00:19:04.173Z,101254.69
2023-03-05T00:21:36.184Z,101249.19
2023-03-05T00:24:18.097Z,101238.69
2023-03-05T00:26:46.347Z,101251.53
2023-03-05T00:29:19.369Z,101245.28
2023-03-05T00:31:46.744Z,101249.44
2023-03-05T00:34:16.919Z,101243.69
2023-03-05T00:36:48.720Z,101251.03
2023-03-05T00:39:19.766Z,101241.88
2023-03-05T00:41:47.138Z,101243.34
2023-03-05T00:44:14.172Z,101233.06
2023-03-05T00:46:43.598Z,101239.41
2023-03-05T00:49:10.721Z,101236.47
2023-03-05T00:51:40.684Z,101238.44
2023-03-05T00:54:08.020Z,101232.38
2023-03-05T00:56:35.077Z,101229.66
2023-03-05T00:59:02.152Z,101221.75
2023-03-05T01:01:29.285Z,101223.03
2023-03-05T01:04:01.444Z,101221.31
2023-03-05T01:06:29.537Z,101221.09
2023-03-05T01:08:56.865Z,101224.88
2023-03-05T01:11:24.860Z,101218.59
2023-03-05T01:13:51.944Z,101225.06
2023-03-05T01:16:18.925Z,101215.84
2023-03-05T01:18:48.864Z,101218.63
2023-03-05T01:21:15.706Z,101222.38
2023-03-05T01:23:44.981Z,101208.31
2023-03-05T01:26:11.812Z,101201.06
2023-03-05T01:28:38.867Z,101206.31
2023-03-05T01:31:15.024Z,101200.94
2023-03-05T01:33:44.665Z,101195.44
2023-03-05T01:36:16.601Z,101197.56
2023-03-05T01:38:47.738Z,101190.66
2023-03-05T01:41:16.374Z,101188.44
2023-03-05T01:43:49.860Z,101179.94
2023-03-05T01:46:24.229Z,101186.34
2023-03-05T01:49:21.479Z,101178.28
2023-03-05T01:52:05.439Z,101163.75
2023-03-05T01:54:52.247Z,101170.41
2023-03-05T01:57:28.518Z,101165.88
2023-03-05T02:00:05.159Z,101166.09
2023-03-05T02:02:33.061Z,101169.00
2023-03-05T02:05:09.434Z,101170.22
2023-03-05T02:07:43.140Z,101165.59
2023-03-05T02:10:45.589Z,101157.97
2023-03-05T02:13:22.817Z,101155.09
2023-03-05T02:15:53.807Z,101151.94
2023-03-05T02:18:24.284Z,101151.22
2023-03-05T02:21:15.812Z,101134.53
2023-03-05T02:23:42.707Z,101138.25
2023-03-05T02:26:10.823Z,101141.38
2023-03-05T02:28:47.279Z,101133.59
2023-03-05T02:31:20.211Z,101140.41
2023-03-05T02:33:48.200Z,101123.09
2023-03-05T02:36:18.078Z,101121.16
2023-03-05T02:38:45.698Z,101127.06
2023-03-05T02:41:13.943Z,101127.03
2023-03-05T02:43:41.274Z,101131.41
2023-03-05T02:46:08.615Z,101125.69
2023-03-05T02:48:35.525Z,101120.69
2023-03-05T02:51:05.546Z,101117.88
2023-03-05T02:53:32.537Z,101120.31
2023-03-05T02:56:02.044Z,101120.69
2023-03-05T02:58:29.021Z,101117.50
2023-03-05T03:00:56.169Z,101121.44
2023-03-05T03:03:23.233Z,101101.91
2023-03-05T03:05:50.380Z,101107.13
2023-03-05T03:08:21.791Z,101101.38
2023-03-05T03:10:48.651Z,101106.09
2023-03-05T03:13:15.616Z,101101.34
2023-03-05T03:15:42.548Z,101102.88
2023-03-05T03:18:12.442Z,101102.41
2023-03-05T03:20:39.538Z,101096.06
2023-03-05T03:23:07.473Z,101090.16
2023-03-05T03:25:36.954Z,101090.41
2023-03-05T03:28:03.849Z,101087.84
2023-03-05T03:30:30.839Z,101088.94
2023-03-05T03:32:57.888Z,101085.53
2023-03-05T03:35:24.856Z,101076.75
2023-03-05T03:37:55.256Z,101083.06
2023-03-05T03:40:22.405Z,101065.00
2023-03-05T03:42:54.271Z,101073.06
2023-03-05T03:45:22.261Z,101063.81
2023-03-05T03:47:50.706Z,101069.88
2023-03-05T03:50:19.131Z,101060.34
2023-03-05T03:52:46.054Z,101058.66
2023-03-05T03:55:15.949Z,101060.88
2023-03-05T03:57:43.565Z,101057.94
2023-03-05T04:00:11.649Z,101046.72
2023-03-05T04:02:38.537Z,101048.28
2023-03-05T04:05:06.345Z,101042.31
2023-03-05T04:07:33.273Z,101045.50
2023-03-05T04:10:02.227Z,101043.78
2023-03-05T04:12:29.286Z,101041.59
2023-03-05T04:14:58.674Z,101042.19
2023-03-05T04:17:25.618Z,101034.75
2023-03-05T04:19:52.526Z,101029.41
2023-03-05T04:22:19.424Z,101040.13
2023-03-05T04:24:48.867Z,101035.38
2023-03-05T04:27:15.808Z,101030.13
2023-03-05T04:29:42.931Z,101028.03
2023-03-05T04:32:09.794Z,101026.47
2023-03-05T04:34:38.067Z,101025.72
2023-03-05T04:37:05.190Z,101028.53
2023-03-05T04:39:32.164Z,101021.59
2023-03-05T04:42:06.120Z,101023.28
2023-03-05T04:44:35.585Z,101022.44
2023-03-05T04:47:02.604Z,101015.50
2023-03-05T04:49:30.075Z,101008.41
2023-03-05T04:51:57.620Z,101004.75
2023-03-05T04:54:28.145Z,101012.81
2023-03-05T04:56:55.154Z,101004.50
2023-03-05T04:59:22.031Z,101000.47
2023-03-05T05:01:51.510Z,101007.69
2023-03-05T05:04:23.476Z,100997.19
2023-03-05T05:06:50.492Z,100989.25
2023-03-05T05:09:19.942Z,100995.97
2023-03-05T05:11:52.226Z,100993.41
2023-03-05T05:14:24.042Z,100993.78
2023-03-05T05:16:54.049Z,100994.38
2023-03-05T05:19:23.512Z,100991.56
2023-03-05T05:21:50.461Z,100995.72
2023-03-05T05:24:19.898Z,101000.84
2023-03-05T05:26:46.793Z,100995.97
2023-03-05T05:29:13.847Z,100994.25
2023-03-05T05:31:40.758Z,100996.31
2023-03-05T05:34:07.690Z,100993.66
2023-03-05T05:36:37.081Z,100985.72
2023-03-05T05:39:07.623Z,100990.13
2023-03-05T05:41:34.520Z,100989.63
2023-03-05T05:44:01.478Z,100985.47
2023-03-05T05:46:31.374Z,100983.28
2023-03-05T05:48:58.428Z,100992.91
2023-03-05T05:51:25.476Z,100985.47
2023-03-05T05:53:53.350Z,100977.66
2023-03-05T05:56:22.979Z,100986.22
2023-03-05T05:58:50.128Z,100984.25
2023-03-05T06:01:37.371Z,100979.38
2023-03-05T06:04:04.429Z,100984.25
2023-03-05T06:06:31.647Z,100979.38
2023-03-05T06:08:58.722Z,100978.53
2023-03-05T06:11:25.642Z,100962.19
2023-03-05T06:13:55.705Z,100975.00
2023-03-05T06:16:28.483Z,100977.44
2023-03-05T06:18:57.903Z,100978.88
2023-03-05T06:21:25.339Z,100980.13
2023-03-05T06:23:53.730Z,100977.41
2023-03-05T06:26:22.944Z,100979.88
2023-03-05T06:28:53.233Z,100972.06
2023-03-05T06:31:23.512Z,100973.75
2023-03-05T06:33:50.627Z,100971.09
2023-03-05T06:36:22.102Z,100970.97
2023-03-05T06:38:49.459Z,100971.81
2023-03-05T06:41:21.745Z,100971.47
2023-03-05T06:43:49.159Z,100969.50
2023-03-05T06:46:31.178Z,100977.78
2023-03-05T06:49:03.984Z,100974.72
2023-03-05T06:51:42.336Z,100971.66
2023-03-05T06:54:16.869Z,100975.81
2023-03-05T06:56:46.910Z,100972.03
2023-03-05T06:59:17.598Z,100974.00
2023-03-05T07:01:45.570Z,100972.16
2023-03-05T07:04:17.776Z,100973.44
2023-03-05T07:06:45.138Z,100969.28
2023-03-05T07:09:15.629Z,100969.34
2023-03-05T07:11:43.114Z,100967.84
2023-03-05T07:14:10.254Z,100963.97
2023-03-05T07:16:42.196Z,100964.94
2023-03-05T07:19:11.587Z,100967.00
2023-03-05T07:21:40.000Z,100964.31
2023-03-05T07:24:08.370Z,100965.50
2023-03-05T07:26:36.267Z,100967.84
2023-03-05T07:29:04.333Z,100967.63
2023-03-05T07:31:33.835Z,100967.13
2023-03-05T07:34:06.602Z,100959.06
2023-03-05T07:36:34.957Z,100964.81
2023-03-05T07:39:02.949Z,100967.59
2023-03-05T07:41:35.287Z,100973.38
2023-03-05T07:44:02.257Z,100974.81
2023-03-05T07:46:33.411Z,100967.34
2023-03-05T07:49:00.790Z,100969.34
2023-03-05T07:51:28.061Z,100967.22
2023-03-05T07:53:57.494Z,100963.88
2023-03-05T07:56:38.055Z,100971.97
2023-03-05T07:59:14.818Z,100962.50
2023-03-05T08:01:41.770Z,100962.97
2023-03-05T08:04:11.464Z,100953.22
2023-03-05T08:06:42.655Z,100954.66
2023-03-05T08:09:09.678Z,100952.28
2023-03-05T08:11:36.690Z,100946.31
2023-03-05T08:14:04.533Z,100946.69
2023-03-05T08:16:32.225Z,100943.81
2023-03-05T08:18:59.558Z,100938.84
2023-03-05T08:21:36.166Z,100939.78
2023-03-05T08:24:09.045Z,100933.81
2023-03-05T08:26:40.348Z,100919.84
2023-03-05T08:29:12.477Z,100923.56
2023-03-05T08:31:40.661Z,100914.44
2023-03-05T08:34:07.616Z,100921.53
2023-03-05T08:36:36.664Z,100928.41
2023-03-05T08:39:06.739Z,100927.72
2023-03-05T08:41:33.671Z,100919.09
2023-03-05T08:44:02.844Z,100924.28
2023-03-05T08:46:33.052Z,100940.81
2023-03-05T08:49:00.125Z,100931.00
2023-03-05T08:51:27.411Z,100923.22
2023-03-05T08:53:56.374Z,100932.56
2023-03-05T08:56:27.478Z,100925.19
2023-03-05T08:58:54.884Z,100922.34
2023-03-05T09:01:25.240Z,100904.97
2023-03-05T09:03:54.624Z,100909.97
2023-03-05T09:06:26.314Z,100899.56
2023-03-05T09:08:54.047Z,100897.50
2023-03-05T09:11:22.230Z,100896.94
2023-03-05T09:13:49.398Z,100894.13
2023-03-05T09:16:20.768Z,100892.75
2023-03-05T09:18:48.158Z,100884.41
2023-03-05T09:21:17.543Z,100891.63
2023-03-05T09:23:47.082Z,100894.34
2023-03-05T09:26:16.343Z,100892.81
2023-03-05T09:28:43.265Z,100890.16
2023-03-05T09:31:11.221Z,100895.25
2023-03-05T09:33:38.825Z,100887.84
2023-03-05T09:36:27.282Z,100879.84
2023-03-05T09:38:55.094Z,100881.72
2023-03-05T09:42:23.449Z,100866.06
2023-03-05T09:45:07.417Z,100875.53
2023-03-05T09:47:58.297Z,100872.31
2023-03-05T09:50:38.765Z,100875.03
2023-03-05T09:53:22.305Z,100870.81
2023-03-05T09:55:54.154Z,100864.88
2023-03-05T09:58:42.903Z,100862.25
2023-03-05T10:01:39.576Z,100860.13
2023-03-05T10:04:22.889Z,100867.75
2023-03-05T10:07:00.392Z,100855.72
2023-03-05T10:09:54.092Z,100857.41
2023-03-05T10:12:43.464Z,100858.41
2023-03-05T10:15:25.243Z,100848.22
2023-03-05T10:18:32.217Z,100851.47
2023-03-05T10:21:05.592Z,100862.72
2023-03-05T10:24:07.317Z,100848.06
2023-03-05T10:26:55.023Z,100850.44
2023-03-05T10:29:46.038Z,100847.41
2023-03-05T10:32:48.369Z,100843.06
2023-03-05T10:36:11.677Z,100832.13
2023-03-05T10:38:50.843Z,100836.41
2023-03-05T10:42:02.693Z,100829.25
2023-03-05T10:44:44.142Z,100827.63
2023-03-05T10:47:46.087Z,100830.50
2023-03-05T10:50:26.020Z,100829.09
2023-03-05T10:53:37.626Z,100827.69
2023-03-05T10:56:06.622Z,100820.41
2023-03-05T10:58:36.187Z,100816.75
2023-03-05T11:01:25.492Z,100819.13
2023-03-05T11:04:08.543Z,100824.53
2023-03-05T11:06:41.305Z,100820.41
2023-03-05T11:09:29.260Z,100814.22
2023-03-05T11:12:08.701Z,100819.75
2023-03-05T11:14:38.843Z,100823.31
2023-03-05T11:17:43.276Z,100809.13
2023-03-05T11:20:33.956Z,100806.59
2023-03-05T11:23:15.693Z,100817.94
2023-03-05T11:26:05.463Z,100816.59
2023-03-05T11:28:39.775Z,100815.19
2023-03-05T11:31:18.271Z,100824.81
2023-03-05T11:34:23.428Z,100838.19
2023-03-05T11:36:56.932Z,100826.47
2023-03-05T11:39:26.126Z,100827.97
2023-03-05T11:41:59.027Z,100813.75
2023-03-05T11:45:02.011Z,100811.56
2023-03-05T11:47:49.705Z,100798.31
2023-03-05T11:50:19.123Z,100780.19
2023-03-05T11:52:58.248Z,100783.59
2023-03-05T11:55:45.299Z,100766.00
2023-03-05T11:58:40.474Z,100766.50
2023-03-05T12:01:17.823Z,100763.31
2023-03-05T12:03:45.617Z,100766.38
2023-03-05T12:06:44.637Z,100756.47
2023-03-05T12:09:43.448Z,100754.75
2023-03-05T12:12:37.443Z,100747.66
2023-03-05T12:15:51.409Z,100737.09
2023-03-05T12:18:46.377Z,100739.44
2023-03-05T12:21:27.944Z,100737.44
2023-03-05T12:24:03.837Z,100737.03
2023-03-05T12:27:07.299Z,100731.63
2023-03-05T12:29:55.007Z,100722.47
2023-03-05T12:32:34.117Z,100717.72
2023-03-05T12:35:37.633Z,100728.78
2023-03-05T12:38:33.245Z,100735.00
2023-03-05T12:41:27.840Z,100708.94
2023-03-05T12:44:07.109Z,100702.84
2023-03-05T12:46:44.322Z,100708.84
2023-03-05T12:49:25.874Z,100693.00
2023-03-05T12:51:59.235Z,100681.34
2023-03-05T12:54:41.900Z,100679.81
2023-03-05T12:57:26.416Z,100677.19
2023-03-05T13:00:22.982Z,100666.56
2023-03-05T13:02:58.593Z,100677.59
2023-03-05T13:05:31.361Z,100658.34
2023-03-05T13:08:28.096Z,100661.75
2023-03-05T13:11:01.700Z,100663.53
2023-03-05T13:13:36.311Z,100663.47
2023-03-05T13:16:04.630Z,100661.28
2023-03-05T13:18:33.132Z,100658.88
2023-03-05T13:21:11.843Z,100660.63
2023-03-05T13:23:47.616Z,100664.16
2023-03-05T13:26:20.488Z,100671.41
2023-03-05T13:29:14.620Z,100667.41
2023-03-05T13:31:52.551Z,100669.72
2023-03-05T13:34:40.877Z,100673.44
2023-03-05T13:37:27.582Z,100684.03
2023-03-05T13:39:59.419Z,100669.56
2023-03-05T13:42:34.672Z,100670.50
2023-03-05T13:45:20.595Z,100668.22
2023-03-05T13:47:59.928Z,100666.03
2023-03-05T13:50:39.915Z,100672.28
2023-03-05T13:53:30.030Z,100655.28
2023-03-05T13:56:07.451Z,100664.44
2023-03-05T13:58:54.894Z,100659.53
2023-03-05T14:02:07.919Z,100647.34
2023-03-05T14:05:05.447Z,100645.63
2023-03-05T14:11:26.335Z,100631.94
2023-03-05T14:18:02.760Z,100608.91
2023-03-05T14:20:32.022Z,100612.31
2023-03-05T14:23:01.411Z,100605.47
2023-03-05T14:25:39.585Z,100607.56
2023-03-05T14:28:25.307Z,100597.59
2023-03-05T14:30:55.807Z,100601.16
2023-03-05T14:33:31.911Z,100604.81
2023-03-05T14:36:03.438Z,100598.56
2023-03-05T14:38:38.292Z,100600.22
2023-03-05T14:41:42.074Z,100603.69
2023-03-05T14:44:25.444Z,100593.44
2023-03-05T14:46:52.450Z,100581.63
2023-03-05T14:49:19.397Z,100584.03
2023-03-05T14:51:49.380Z,100584.53
2023-03-05T14:54:26.435Z,100581.06
2023-03-05T14:56:56.298Z,100575.00
2023-03-05T14:59:28.793Z,100574.91
2023-03-05T15:02:01.363Z,100578.25
2023-03-05T15:04:31.335Z,100567.81
2023-03-05T15:07:01.420Z,100572.22
2023-03-05T15:09:28.370Z,100567.75
2023-03-05T15:11:55.266Z,100561.38
2023-03-05T15:14:22.339Z,100561.72
2023-03-05T15:16:49.311Z,100547.09
2023-03-05T15:19:16.485Z,100543.81
2023-03-05T15:21:45.548Z,100553.25
2023-03-05T15:24:15.126Z,100549.38
2023-03-05T15:26:43.686Z,100542.81
2023-03-05T15:29:10.846Z,100536.25
2023-03-05T15:31:40.468Z,100541.97
2023-03-05T15:34:07.864Z,100534.28
2023-03-05T15:36:36.929Z,100539.44
2023-03-05T15:39:09.292Z,100530.94
2023-03-05T15:41:36.391Z,100529.72
2023-03-05T15:44:03.612Z,100525.13
2023-03-05T15:46:31.071Z,100528.13
2023-03-05T15:48:58.176Z,100521.13
2023-03-05T15:51:25.146Z,100519.03
2023-03-05T15:53:52.465Z,100521.19
2023-03-05T15:56:20.022Z,100515.09
2023-03-05T15:58:50.722Z,100516.94
2023-03-05T16:01:19.423Z,100518.44
2023-03-05T16:03:47.151Z,100511.78
2023-03-05T16:06:16.026Z,100514.47
2023-03-05T16:08:49.156Z,100508.50
2023-03-05T16:11:16.489Z,100513.75
2023-03-05T16:13:43.686Z,100510.03
2023-03-05T16:16:11.331Z,100514.75
2023-03-05T16:18:42.090Z,100514.00
2023-03-05T16:21:10.072Z,100509.69
2023-03-05T16:23:37.290Z,100505.81
2023-03-05T16:26:04.363Z,100505.91
2023-03-05T16:28:31.429Z,100517.72
2023-03-05T16:30:58.702Z,100516.25
2023-03-05T16:33:30.277Z,100505.84
2023-03-05T16:36:30.525Z,100508.56
2023-03-05T16:38:59.776Z,100502.22
2023-03-05T16:41:29.311Z,100505.91
2023-03-05T16:43:56.774Z,100497.09
2023-03-05T16:46:29.264Z,100493.28
2023-03-05T16:48:56.876Z,100485.03
2023-03-05T16:51:24.318Z,100485.03
2023-03-05T16:53:51.785Z,100485.50
2023-03-05T16:56:19.389Z,100480.09
2023-03-05T16:58:46.828Z,100490.31
2023-03-05T17:01:19.898Z,100485.16
2023-03-05T17:03:48.002Z,100479.94
2023-03-05T17:06:25.578Z,100480.34
2023-03-05T17:08:53.881Z,100477.03
2023-03-05T17:11:27.524Z,100476.13
2023-03-05T17:13:56.941Z,100483.22
2023-03-05T17:16:24.142Z,100475.50
2023-03-05T17:18:51.237Z,100482.63
2023-03-05T17:21:18.648Z,100477.63
2023-03-05T17:23:45.948Z,100475.75
2023-03-05T17:26:17.776Z,100474.34
2023-03-05T17:28:45.953Z,100474.22
2023-03-05T17:31:18.828Z,100473.50
2023-03-05T17:33:50.953Z,100458.38
2023-03-05T17:36:20.549Z,100468.09
2023-03-05T17:38:51.587Z,100465.16
2023-03-05T17:41:19.898Z,100472.09
2023-03-05T17:43:51.839Z,100465.75
2023-03-05T17:46:19.002Z,100461.81
2023-03-05T17:48:46.173Z,100463.81
2023-03-05T17:51:16.792Z,100460.56
2023-03-05T17:53:44.961Z,100458.38
2023-03-05T17:56:14.502Z,100456.34
2023-03-05T17:58:41.964Z,100456.00
2023-03-05T18:01:08.989Z,100453.84
2023-03-05T18:03:37.093Z,100454.56
2023-03-05T18:06:05.094Z,100444.03
2023-03-05T18:08:34.510Z,100450.41
2023-03-05T18:11:01.620Z,100443.91
2023-03-05T18:13:28.898Z,100442.72
2023-03-05T18:16:03.826Z,100438.69
2023-03-05T18:18:31.573Z,100441.31
2023-03-05T18:20:58.433Z,100440.66
2023-03-05T18:23:25.549Z,100440.25
2023-03-05T18:25:52.834Z,100441.06
2023-03-05T18:28:19.859Z,100440.50
2023-03-05T18:30:48.904Z,100434.41
2023-03-05T18:33:25.056Z,100429.63
2023-03-05T18:35:53.350Z,100425.06
2023-03-05T18:38:23.446Z,100428.25
2023-03-05T18:40:51.777Z,100423.41
2023-03-05T18:43:21.009Z,100417.38
2023-03-05T18:45:53.086Z,100414.34
2023-03-05T18:48:23.659Z,100419.44
2023-03-05T18:50:53.279Z,100413.41
2023-03-05T18:53:21.850Z,100406.50
2023-03-05T18:55:55.133Z,100414.09
2023-03-05T18:58:23.043Z,100413.22
2023-03-05T19:00:55.455Z,100406.38
2023-03-05T19:03:23.147Z,100405.53
2023-03-05T19:05:54.956Z,100408.16
2023-03-05T19:08:24.616Z,100393.94
2023-03-05T19:10:51.740Z,100392.75
2023-03-05T19:13:39.499Z,100388.16
2023-03-05T19:16:17.793Z,100391.94
2023-03-05T19:18:59.897Z,100394.16
2023-03-05T19:21:27.010Z,100388.38
2023-03-05T19:23:54.315Z,100384.94
2023-03-05T19:26:21.278Z,100383.84
2023-03-05T19:28:48.556Z,100386.91
2023-03-05T19:31:15.994Z,100380.72
2023-03-05T19:33:45.528Z,100367.84
2023-03-05T19:36:15.295Z,100365.75
2023-03-05T19:38:43.186Z,100365.19
2023-03-05T19:41:13.258Z,100353.22
2023-03-05T19:43:41.233Z,100347.47
2023-03-05T19:46:29.965Z,100345.53
2023-03-05T19:48:57.625Z,100342.59
2023-03-05T19:51:29.744Z,100335.25
2023-03-05T19:53:56.788Z,100335.81
2023-03-05T19:56:24.051Z,100329.88
2023-03-05T19:58:51.594Z,100329.63
2023-03-05T20:01:31.110Z,100329.31
2023-03-05T20:04:00.577Z,100322.28
2023-03-05T20:06:30.209Z,100321.41
2023-03-05T20:09:00.243Z,100321.41
2023-03-05T20:11:30.152Z,100322.81
2023-03-05T20:14:00.692Z,100321.69
2023-03-05T20:16:37.575Z,100314.06
2023-03-05T20:19:08.343Z,100309.81
2023-03-05T20:21:40.906Z,100308.41
2023-03-05T20:24:13.571Z,100303.31
2023-03-05T20:26:42.149Z,100298.78
2023-03-05T20:29:18.958Z,100294.81
2023-03-05T20:31:46.752Z,100285.63
2023-03-05T20:34:19.903Z,100267.72
2023-03-05T20:37:06.096Z,100274.63
2023-03-05T20:39:33.452Z,100278.72
2023-03-05T20:42:06.945Z,100282.69
2023-03-05T20:44:34.118Z,100276.19
2023-03-05T20:47:22.452Z,100280.72
2023-03-05T20:49:54.430Z,100270.25
2023-03-05T20:52:21.850Z,100265.88
2023-03-05T20:54:48.873Z,100262.06
2023-03-05T20:57:15.979Z,100257.25
2023-03-05T20:59:43.347Z,100263.34
2023-03-05T21:02:13.151Z,100255.84
2023-03-05T21:04:40.117Z,100247.09
2023-03-05T21:07:07.311Z,100245.09
2023-03-05T21:09:34.475Z,100230.69
2023-03-05T21:12:01.974Z,100232.38
2023-03-05T21:14:28.844Z,100215.41
2023-03-05T21:16:56.014Z,100216.72
2023-03-05T21:19:23.228Z,100227.88
2023-03-05T21:21:50.542Z,100215.75
2023-03-05T21:24:18.142Z,100202.03
2023-03-05T21:26:45.401Z,100216.97
2023-03-05T21:29:12.413Z,100216.84
2023-03-05T21:31:39.829Z,100220.22
2023-03-05T21:34:09.307Z,100226.31
2023-03-05T21:36:36.223Z,100209.78
2023-03-05T21:39:03.367Z,100214.31
2023-03-05T21:41:31.266Z,100208.53
2023-03-05T21:44:04.173Z,100207.28
2023-03-05T21:46:35.108Z,100202.59
2023-03-05T21:49:04.393Z,100195.25
2023-03-05T21:51:38.720Z,100198.22
2023-03-05T21:54:06.048Z,100194.81
2023-03-05T21:56:33.001Z,100199.78
2023-03-05T21:59:00.782Z,100191.19
2023-03-05T22:01:32.732Z,100197.22
2023-03-05T22:04:00.081Z,100193.53
2023-03-05T22:06:27.340Z,100195.25
2023-03-05T22:08:54.306Z,100186.22
2023-03-05T22:11:22.318Z,100191.56
2023-03-05T22:13:51.324Z,100179.81
2023-03-05T22:16:27.445Z,100179.00
2023-03-05T22:18:55.105Z,100170.53
2023-03-05T22:21:26.948Z,100170.25
2023-03-05T22:23:57.156Z,100174.78
2023-03-05T22:26:34.406Z,100171.97
2023-03-05T22:29:02.277Z,100159.22
2023-03-05T22:31:31.593Z,100160.38
2023-03-05T22:33:58.668Z,100169.97
2023-03-05T22:36:25.810Z,100163.91
2023-03-05T22:38:53.025Z,100165.72
2023-03-05T22:41:21.198Z,100163.50
2023-03-05T22:43:49.911Z,100163.16
2023-03-05T22:46:27.599Z,100159.88
2023-03-05T22:48:54.883Z,100154.09
2023-03-05T22:51:22.207Z,100154.97
2023-03-05T22:53:49.346Z,100152.16
2023-03-05T22:56:19.486Z,100153.00
2023-03-05T22:58:51.270Z,100155.22
2023-03-05T23:01:22.507Z,100155.09
2023-03-05T23:03:54.855Z,100150.44
2023-03-05T23:06:21.970Z,100157.75
2023-03-05T23:08:48.925Z,100156.66
2023-03-05T23:11:17.950Z,100149.03
2023-03-05T23:13:44.894Z,100154.97
2023-03-05T23:16:11.872Z,100151.66
2023-03-05T23:18:38.786Z,100149.53
2023-03-05T23:21:05.994Z,100157.75
2023-03-05T23:23:33.586Z,100148.13
2023-03-05T23:26:00.604Z,100150.91
2023-03-05T23:28:27.557Z,100152.31
2023-03-05T23:30:54.555Z,100159.72
2023-03-05T23:33:25.517Z,100155.88
2023-03-05T23:35:59.162Z,100152.66
2023-03-05T23:38:30.015Z,100164.53
2023-03-05T23:41:01.453Z,100157.19
2023-03-05T23:43:28.649Z,100156.41
2023-03-05T23:45:56.629Z,100156.47
2023-03-05T23:48:28.073Z,100160.56
2023-03-05T23:50:55.484Z,100158.28
2023-03-05T23:53:31.307Z,100161.94
2023-03-05T23:55:58.351Z,100152.09
2023-03-05T23:58:25.832Z,100154.53
